createdAt,value
2017-09-26T00:00:42.718Z,34.83
2017-09-26T00:03:10.244Z,32.17
2017-09-26T00:05:37.831Z,36.42
2017-09-26T00:08:06.160Z,34.50
2017-09-26T00:10:33.668Z,27.58
2017-09-26T00:13:01.758Z,33.10
2017-09-26T00:15:29.389Z,35.33
2017-09-26T00:17:56.979Z,30.45
2017-09-26T00:20:24.520Z,31.15
2017-09-26T00:22:52.130Z,33.25
2017-09-26T00:25:19.674Z,31.15
2017-09-26T00:27:47.975Z,32.45
2017-09-26T00:30:15.493Z,31.02
2017-09-26T00:32:43.086Z,31.83
2017-09-26T00:35:10.606Z,40.30
2017-09-26T00:37:38.141Z,39.05
2017-09-26T00:40:05.659Z,38.85
2017-09-26T00:42:33.196Z,36.28
2017-09-26T00:45:00.713Z,36.63
2017-09-26T00:47:28.236Z,37.88
2017-09-26T00:49:56.509Z,34.08
2017-09-26T00:52:24.797Z,38.95
2017-09-26T00:54:52.309Z,35.90
2017-09-26T00:57:19.849Z,38.97
2017-09-26T00:59:47.412Z,40.05
2017-09-26T01:02:15.709Z,39.67
2017-09-26T01:04:46.981Z,34.45
2017-09-26T01:07:30.923Z,36.45
2017-09-26T01:09:58.425Z,37.55
2017-09-26T01:12:25.956Z,38.08
2017-09-26T01:14:54.234Z,34.67
2017-09-26T01:17:22.529Z,39.13
2017-09-26T01:19:50.036Z,38.20
2017-09-26T01:22:17.565Z,33.92
2017-09-26T01:24:45.072Z,38.65
2017-09-26T01:27:12.597Z,35.92
2017-09-26T01:29:40.113Z,42.78
2017-09-26T01:32:08.396Z,36.35
2017-09-26T01:34:35.896Z,33.78
2017-09-26T01:37:03.421Z,36.25
2017-09-26T01:39:30.934Z,39.13
2017-09-26T01:41:58.461Z,43.42
2017-09-26T01:44:25.972Z,41.65
2017-09-26T01:46:53.584Z,40.28
2017-09-26T01:49:21.090Z,41.85
2017-09-26T01:51:48.620Z,40.08
2017-09-26T01:54:16.133Z,37.67
2017-09-26T01:56:43.659Z,35.97
2017-09-26T01:59:21.992Z,40.25
2017-09-26T02:01:49.522Z,41.60
2017-09-26T02:04:17.029Z,40.67
2017-09-26T02:06:44.553Z,41.45
2017-09-26T02:09:12.064Z,41.97
2017-09-26T02:11:39.584Z,39.05
2017-09-26T02:14:07.092Z,43.92
2017-09-26T02:16:34.620Z,47.13
2017-09-26T02:19:02.893Z,45.88
2017-09-26T02:21:31.182Z,34.45
2017-09-26T02:23:58.705Z,43.17
2017-09-26T02:26:26.231Z,44.38
2017-09-26T02:28:53.723Z,41.03
2017-09-26T02:31:21.252Z,42.55
2017-09-26T02:33:48.747Z,42.67
2017-09-26T02:36:16.272Z,46.63
2017-09-26T02:38:43.780Z,38.83
2017-09-26T02:41:12.080Z,39.45
2017-09-26T02:43:39.592Z,41.33
2017-09-26T02:46:07.120Z,39.10
2017-09-26T02:48:34.615Z,37.00
2017-09-26T02:51:02.141Z,42.92
2017-09-26T02:53:31.585Z,40.53
2017-09-26T02:55:59.120Z,39.47
2017-09-26T02:58:26.638Z,36.83
2017-09-26T03:00:54.168Z,38.55
2017-09-26T03:03:21.684Z,37.47
2017-09-26T03:05:49.218Z,42.00
2017-09-26T03:08:16.724Z,42.13
2017-09-26T03:10:44.233Z,36.88
2017-09-26T03:13:11.770Z,45.75
2017-09-26T03:15:39.281Z,38.25
2017-09-26T03:18:06.809Z,35.88
2017-09-26T03:20:35.068Z,37.38
2017-09-26T03:23:03.392Z,38.65
2017-09-26T03:25:30.887Z,33.53
2017-09-26T03:27:58.403Z,36.45
2017-09-26T03:30:25.916Z,36.72
2017-09-26T03:32:53.428Z,41.78
2017-09-26T03:35:20.931Z,40.53
2017-09-26T03:37:48.448Z,40.15
2017-09-26T03:40:15.947Z,40.80
2017-09-26T03:42:43.456Z,41.73
2017-09-26T03:45:10.956Z,41.80
2017-09-26T03:47:38.483Z,37.28
2017-09-26T03:50:05.979Z,38.97
2017-09-26T03:52:33.500Z,41.92
2017-09-26T03:55:00.995Z,38.22
2017-09-26T03:57:28.510Z,38.25
2017-09-26T03:59:56.008Z,41.15
2017-09-26T04:02:23.532Z,40.63
2017-09-26T04:04:51.803Z,42.03
2017-09-26T04:07:19.324Z,44.53
2017-09-26T04:09:46.815Z,41.13
2017-09-26T04:12:14.329Z,41.42
2017-09-26T04:14:41.823Z,42.40
2017-09-26T04:17:10.123Z,45.30
2017-09-26T04:19:37.622Z,37.90
2017-09-26T04:22:05.144Z,45.25
2017-09-26T04:24:32.640Z,47.62
2017-09-26T04:27:00.159Z,45.90
2017-09-26T04:29:27.716Z,43.50
2017-09-26T04:31:55.236Z,43.15
2017-09-26T04:34:22.728Z,47.17
2017-09-26T04:36:50.253Z,49.92
2017-09-26T04:39:17.755Z,50.90
2017-09-26T04:41:45.276Z,52.13
2017-09-26T04:44:12.777Z,53.67
2017-09-26T04:46:40.305Z,49.97
2017-09-26T04:49:08.592Z,45.72
2017-09-26T04:51:36.883Z,51.10
2017-09-26T04:54:04.384Z,59.17
2017-09-26T04:56:31.960Z,51.80
2017-09-26T04:58:59.439Z,54.63
2017-09-26T05:01:26.957Z,54.75
2017-09-26T05:03:54.463Z,55.65
2017-09-26T05:06:22.754Z,53.78
2017-09-26T05:08:51.035Z,56.25
2017-09-26T05:11:18.557Z,52.00
2017-09-26T05:13:46.061Z,48.75
2017-09-26T05:16:13.577Z,52.28
2017-09-26T05:18:41.093Z,55.47
2017-09-26T05:21:08.620Z,53.63
2017-09-26T05:23:36.889Z,63.63
2017-09-26T05:26:05.184Z,67.90
2017-09-26T05:28:33.453Z,61.40
2017-09-26T05:31:02.100Z,63.10
2017-09-26T05:33:29.613Z,58.60
2017-09-26T05:35:57.140Z,62.65
2017-09-26T05:38:24.648Z,59.28
2017-09-26T05:40:52.185Z,56.45
2017-09-26T05:43:27.669Z,59.58
2017-09-26T05:45:55.199Z,58.55
2017-09-26T05:48:22.716Z,64.00
2017-09-26T05:50:50.256Z,70.28
2017-09-26T05:53:17.768Z,64.70
2017-09-26T05:55:46.070Z,64.22
2017-09-26T05:58:13.585Z,62.33
2017-09-26T06:00:41.104Z,68.18
2017-09-26T06:03:08.628Z,63.75
2017-09-26T06:05:36.205Z,69.60
2017-09-26T06:08:03.841Z,63.90
2017-09-26T06:10:32.137Z,60.95
2017-09-26T06:12:59.652Z,68.85
2017-09-26T06:15:27.188Z,60.80
2017-09-26T06:17:54.697Z,62.88
2017-09-26T06:20:23.002Z,61.53
2017-09-26T06:22:50.503Z,54.38
2017-09-26T06:25:18.052Z,66.03
2017-09-26T06:27:45.570Z,60.80
2017-09-26T06:30:13.101Z,61.67
2017-09-26T06:32:40.619Z,54.25
2017-09-26T06:35:08.156Z,53.03
2017-09-26T06:37:35.679Z,61.70
2017-09-26T06:40:03.983Z,56.30
2017-09-26T06:42:31.495Z,60.00
2017-09-26T06:44:59.022Z,52.47
2017-09-26T06:47:26.550Z,53.85
2017-09-26T06:49:54.852Z,49.60
2017-09-26T06:52:22.361Z,55.05
2017-09-26T06:54:49.894Z,53.30
2017-09-26T06:57:17.406Z,46.58
2017-09-26T06:59:45.695Z,59.10
2017-09-26T07:02:13.209Z,56.30
2017-09-26T07:04:40.746Z,59.92
2017-09-26T07:07:09.015Z,51.80
2017-09-26T07:09:36.557Z,54.78
2017-09-26T07:12:04.065Z,50.53
2017-09-26T07:14:31.600Z,52.50
2017-09-26T07:16:59.116Z,45.47
2017-09-26T07:19:27.415Z,43.00
2017-09-26T07:21:54.913Z,49.87
2017-09-26T07:24:22.438Z,44.47
2017-09-26T07:26:49.989Z,44.23
2017-09-26T07:29:17.532Z,41.80
2017-09-26T07:31:45.808Z,48.85
2017-09-26T07:34:13.306Z,37.90
2017-09-26T07:36:40.829Z,38.87
2017-09-26T07:39:09.110Z,42.97
2017-09-26T07:41:36.641Z,41.33
2017-09-26T07:44:04.156Z,44.60
2017-09-26T07:46:31.686Z,42.90
2017-09-26T07:48:59.963Z,42.10
2017-09-26T07:51:28.253Z,38.30
2017-09-26T07:53:56.532Z,38.97
2017-09-26T07:56:24.825Z,39.63
2017-09-26T07:58:52.329Z,48.20
2017-09-26T08:01:20.030Z,45.07
2017-09-26T08:03:48.575Z,39.63
2017-09-26T08:06:16.371Z,41.80
2017-09-26T08:08:44.915Z,43.70
2017-09-26T08:11:12.443Z,40.93
2017-09-26T08:13:39.954Z,42.80
2017-09-26T08:16:07.488Z,39.87
2017-09-26T08:18:34.993Z,39.50
2017-09-26T08:21:03.293Z,38.00
2017-09-26T08:23:30.799Z,42.10
2017-09-26T08:25:58.324Z,34.50
2017-09-26T08:28:25.832Z,43.63
2017-09-26T08:30:53.391Z,39.63
2017-09-26T08:33:21.317Z,37.17
2017-09-26T08:35:48.851Z,40.50
2017-09-26T08:38:17.129Z,40.47
2017-09-26T08:40:45.426Z,43.00
2017-09-26T08:43:13.700Z,39.03
2017-09-26T08:45:41.229Z,40.27
2017-09-26T08:48:08.732Z,46.57
2017-09-26T08:50:36.257Z,42.00
2017-09-26T08:53:04.538Z,42.77
2017-09-26T08:55:32.824Z,39.93
2017-09-26T08:58:00.404Z,34.53
2017-09-26T09:00:27.929Z,42.07
2017-09-26T09:02:56.205Z,35.77
2017-09-26T09:05:24.504Z,40.07
2017-09-26T09:07:52.008Z,40.23
2017-09-26T09:10:19.548Z,37.57
2017-09-26T09:12:47.045Z,37.03
2017-09-26T09:15:14.569Z,35.33
2017-09-26T09:17:42.076Z,43.13
2017-09-26T09:20:10.364Z,45.73
2017-09-26T09:22:38.642Z,38.00
2017-09-26T09:25:07.856Z,39.03
2017-09-26T09:27:35.364Z,45.07
2017-09-26T09:30:02.882Z,43.87
2017-09-26T09:32:30.394Z,43.93
2017-09-26T09:34:57.926Z,50.60
2017-09-26T09:37:25.427Z,43.87
2017-09-26T09:39:53.726Z,45.17
2017-09-26T09:42:21.237Z,42.00
2017-09-26T09:44:48.766Z,50.03
2017-09-26T09:47:16.270Z,40.67
2017-09-26T09:49:43.789Z,43.20
2017-09-26T09:52:11.293Z,42.90
2017-09-26T09:54:38.828Z,43.40
2017-09-26T09:57:06.331Z,40.23
2017-09-26T09:59:33.860Z,41.33
2017-09-26T10:02:01.356Z,42.17
2017-09-26T10:04:28.903Z,42.03
2017-09-26T10:06:57.187Z,39.33
2017-09-26T10:09:25.480Z,31.60
2017-09-26T10:11:52.989Z,32.10
2017-09-26T10:14:20.516Z,36.20
2017-09-26T10:16:48.023Z,31.00
2017-09-26T10:19:15.764Z,38.10
2017-09-26T10:21:43.264Z,33.77
2017-09-26T10:24:11.561Z,35.07
2017-09-26T10:26:39.068Z,36.93
2017-09-26T10:29:06.597Z,36.03
2017-09-26T10:31:34.108Z,35.97
2017-09-26T10:34:02.406Z,34.80
2017-09-26T10:36:30.673Z,40.43
2017-09-26T10:38:58.964Z,50.33
2017-09-26T10:41:27.240Z,39.23
2017-09-26T10:43:54.765Z,40.60
2017-09-26T10:46:22.275Z,36.93
2017-09-26T10:48:49.788Z,33.87
2017-09-26T10:51:17.293Z,33.93
2017-09-26T10:53:44.820Z,29.43
2017-09-26T10:56:12.332Z,28.00
2017-09-26T10:58:39.866Z,30.83
2017-09-26T11:01:07.380Z,26.53
2017-09-26T11:03:35.124Z,27.17
2017-09-26T11:06:02.634Z,33.57
2017-09-26T11:08:30.953Z,31.43
2017-09-26T11:10:58.459Z,35.33
2017-09-26T11:13:25.985Z,35.27
2017-09-26T11:15:53.488Z,35.80
2017-09-26T11:18:21.777Z,31.93
2017-09-26T11:20:50.035Z,28.80
2017-09-26T11:23:17.564Z,34.90
2017-09-26T11:25:45.083Z,32.30
2017-09-26T11:28:12.605Z,29.83
2017-09-26T11:30:45.897Z,27.80
2017-09-26T11:33:23.785Z,31.83
2017-09-26T11:35:51.300Z,29.87
2017-09-26T11:38:18.833Z,27.93
2017-09-26T11:40:46.664Z,26.40
2017-09-26T11:43:14.220Z,28.83
2017-09-26T11:45:41.965Z,26.83
2017-09-26T11:48:09.520Z,28.60
2017-09-26T11:50:37.011Z,24.43
2017-09-26T11:53:04.535Z,19.77
2017-09-26T11:55:32.032Z,24.10
2017-09-26T11:57:59.556Z,24.70
2017-09-26T12:00:27.064Z,26.60
2017-09-26T12:02:54.589Z,29.00
2017-09-26T12:05:22.098Z,21.73
2017-09-26T12:07:49.730Z,20.30
2017-09-26T12:10:17.264Z,16.90
2017-09-26T12:12:51.243Z,27.30
2017-09-26T12:15:19.511Z,21.23
2017-09-26T12:17:47.791Z,19.67
2017-09-26T12:20:15.296Z,20.60
2017-09-26T12:22:42.821Z,17.87
2017-09-26T12:25:11.089Z,18.63
2017-09-26T12:27:39.367Z,26.07
2017-09-26T12:30:07.628Z,19.97
2017-09-26T12:32:35.133Z,19.27
2017-09-26T12:35:03.217Z,22.47
2017-09-26T12:37:30.756Z,23.43
2017-09-26T12:39:58.274Z,14.37
2017-09-26T12:42:25.809Z,21.27
2017-09-26T12:44:53.316Z,19.00
2017-09-26T12:47:21.573Z,22.13
2017-09-26T12:49:49.103Z,23.87
2017-09-26T12:52:16.615Z,52.10
2017-09-26T12:54:44.913Z,38.07
2017-09-26T12:57:12.412Z,29.30
2017-09-26T12:59:39.940Z,24.77
2017-09-26T13:02:07.443Z,26.23
2017-09-26T13:04:34.959Z,21.77
2017-09-26T13:07:02.680Z,26.30
2017-09-26T13:09:30.205Z,22.60
2017-09-26T13:11:57.697Z,27.10
2017-09-26T13:14:30.992Z,27.13
2017-09-26T13:16:58.481Z,28.60
2017-09-26T13:19:26.007Z,24.73
2017-09-26T13:21:53.515Z,25.97
2017-09-26T13:24:21.037Z,27.33
2017-09-26T13:26:49.930Z,25.43
2017-09-26T13:29:18.266Z,24.13
2017-09-26T13:31:45.772Z,20.03
2017-09-26T13:34:14.109Z,22.97
2017-09-26T13:36:41.625Z,23.43
2017-09-26T13:39:09.170Z,24.77
2017-09-26T13:41:36.726Z,21.60
2017-09-26T13:44:05.012Z,19.30
2017-09-26T13:46:33.281Z,16.50
2017-09-26T13:49:01.581Z,22.40
2017-09-26T13:51:29.091Z,17.27
2017-09-26T13:53:59.868Z,19.93
2017-09-26T13:56:27.385Z,28.23
2017-09-26T13:58:54.904Z,18.50
2017-09-26T14:01:22.437Z,20.53
2017-09-26T14:03:50.741Z,19.43
2017-09-26T14:06:18.252Z,17.70
2017-09-26T14:08:46.347Z,21.27
2017-09-26T14:11:13.900Z,19.10
2017-09-26T14:13:41.434Z,21.30
2017-09-26T14:16:08.960Z,16.40
2017-09-26T14:18:36.941Z,20.60
2017-09-26T14:21:04.461Z,21.10
2017-09-26T14:23:32.760Z,16.97
2017-09-26T14:26:00.269Z,17.73
2017-09-26T14:28:27.799Z,19.43
2017-09-26T14:30:55.322Z,16.77
2017-09-26T14:33:23.670Z,16.60
2017-09-26T14:35:51.197Z,18.50
2017-09-26T14:38:18.704Z,18.57
2017-09-26T14:40:46.233Z,24.03
2017-09-26T14:43:13.757Z,20.77
2017-09-26T14:45:41.280Z,14.83
2017-09-26T14:48:08.788Z,19.00
2017-09-26T14:50:36.372Z,19.60
2017-09-26T14:53:03.889Z,25.83
2017-09-26T14:55:31.432Z,26.60
2017-09-26T14:57:59.704Z,24.10
2017-09-26T15:00:27.221Z,23.90
2017-09-26T15:02:54.766Z,25.77
2017-09-26T15:05:22.322Z,25.80
2017-09-26T15:07:49.845Z,32.43
2017-09-26T15:10:18.161Z,36.43
2017-09-26T15:12:45.685Z,34.17
2017-09-26T15:15:13.995Z,35.63
2017-09-26T15:17:42.293Z,37.50
2017-09-26T15:20:09.841Z,35.97
2017-09-26T15:22:37.374Z,40.30
2017-09-26T15:25:04.904Z,39.33
2017-09-26T15:27:32.442Z,41.17
2017-09-26T15:29:59.999Z,46.57
2017-09-26T15:32:27.507Z,47.17
2017-09-26T15:34:55.047Z,51.97
2017-09-26T15:37:22.630Z,49.23
2017-09-26T15:39:50.224Z,43.27
2017-09-26T15:42:17.837Z,53.00
2017-09-26T15:44:46.183Z,47.03
2017-09-26T15:47:13.761Z,42.80
2017-09-26T15:49:41.300Z,41.90
2017-09-26T15:52:08.883Z,47.50
2017-09-26T15:54:46.686Z,50.37
2017-09-26T15:57:14.326Z,44.17
2017-09-26T15:59:41.893Z,46.23
2017-09-26T16:02:09.535Z,45.63
2017-09-26T16:04:37.069Z,45.93
2017-09-26T16:07:04.635Z,37.57
2017-09-26T16:09:32.272Z,39.00
2017-09-26T16:11:59.877Z,28.00
2017-09-26T16:14:27.437Z,19.73
2017-09-26T16:16:55.033Z,26.40
2017-09-26T16:19:23.412Z,18.63
2017-09-26T16:21:51.002Z,14.97
2017-09-26T16:24:19.317Z,10.73
2017-09-26T16:26:46.938Z,10.97
2017-09-26T16:29:15.273Z,10.53
2017-09-26T16:31:42.868Z,11.53
2017-09-26T16:34:12.329Z,13.93
2017-09-26T16:36:39.924Z,11.97
2017-09-26T16:39:07.572Z,10.43
2017-09-26T16:41:35.261Z,10.60
2017-09-26T16:44:04.094Z,11.53
2017-09-26T16:46:31.681Z,9.63
2017-09-26T16:48:59.237Z,14.50
2017-09-26T16:51:26.862Z,10.90
2017-09-26T16:53:56.396Z,11.90
2017-09-26T16:56:23.983Z,12.87
2017-09-26T16:58:55.281Z,14.33
2017-09-26T17:01:23.711Z,16.30
2017-09-26T17:03:51.364Z,17.60
2017-09-26T17:06:19.010Z,22.40
2017-09-26T17:08:48.055Z,16.10
2017-09-26T17:11:15.742Z,18.20
2017-09-26T17:13:43.370Z,14.40
2017-09-26T17:16:11.694Z,18.27
2017-09-26T17:18:39.317Z,17.17
2017-09-26T17:21:06.865Z,19.40
2017-09-26T17:23:34.441Z,18.33
2017-09-26T17:26:02.019Z,16.87
2017-09-26T17:28:30.361Z,17.30
2017-09-26T17:30:57.946Z,16.63
2017-09-26T17:33:25.525Z,15.43
2017-09-26T17:35:53.094Z,16.37
2017-09-26T17:38:20.626Z,17.83
2017-09-26T17:40:48.229Z,16.90
2017-09-26T17:43:15.805Z,17.93
2017-09-26T17:45:43.501Z,17.60
2017-09-26T17:48:11.060Z,15.50
2017-09-26T17:50:38.662Z,20.10
2017-09-26T17:53:06.245Z,19.83
2017-09-26T17:55:33.834Z,20.20
2017-09-26T17:58:01.389Z,18.20
2017-09-26T18:00:29.758Z,21.10
2017-09-26T18:02:57.372Z,22.77
2017-09-26T18:05:25.006Z,21.00
2017-09-26T18:07:52.631Z,19.50
2017-09-26T18:10:20.283Z,17.90
2017-09-26T18:12:47.857Z,21.10
2017-09-26T18:15:15.434Z,19.10
2017-09-26T18:17:43.125Z,15.87
2017-09-26T18:20:11.458Z,20.57
2017-09-26T18:22:39.113Z,18.10
2017-09-26T18:25:08.176Z,15.40
2017-09-26T18:27:37.803Z,16.87
2017-09-26T18:30:05.439Z,15.50
2017-09-26T18:32:33.812Z,17.50
2017-09-26T18:35:01.411Z,16.27
2017-09-26T18:37:29.531Z,13.23
2017-09-26T18:39:57.163Z,17.40
2017-09-26T18:42:24.759Z,21.93
2017-09-26T18:44:52.360Z,14.57
2017-09-26T18:47:19.937Z,15.90
2017-09-26T18:49:47.531Z,15.53
2017-09-26T18:52:15.157Z,16.63
2017-09-26T18:54:42.801Z,18.00
2017-09-26T18:57:11.173Z,14.67
2017-09-26T18:59:38.776Z,16.93
2017-09-26T19:02:06.385Z,19.57
2017-09-26T19:04:36.650Z,19.77
2017-09-26T19:07:04.287Z,21.07
2017-09-26T19:09:31.959Z,21.60
2017-09-26T19:11:59.538Z,24.50
2017-09-26T19:14:27.172Z,22.23
2017-09-26T19:16:56.694Z,19.40
2017-09-26T19:19:24.296Z,20.63
2017-09-26T19:21:51.955Z,21.10
2017-09-26T19:24:19.502Z,20.53
2017-09-26T19:26:49.002Z,27.37
2017-09-26T19:29:16.715Z,23.73
2017-09-26T19:31:49.394Z,20.13
2017-09-26T19:34:16.986Z,24.73
2017-09-26T19:36:44.581Z,23.10
2017-09-26T19:39:12.181Z,23.13
2017-09-26T19:41:39.794Z,21.43
2017-09-26T19:44:07.395Z,25.20
2017-09-26T19:46:35.754Z,24.90
2017-09-26T19:49:03.324Z,19.83
2017-09-26T19:51:31.945Z,23.00
2017-09-26T19:53:59.490Z,23.20
2017-09-26T19:56:27.879Z,24.40
2017-09-26T19:58:56.191Z,22.80
2017-09-26T20:01:23.832Z,23.37
2017-09-26T20:03:52.210Z,24.93
2017-09-26T20:06:20.576Z,18.33
2017-09-26T20:08:49.035Z,19.80
2017-09-26T20:11:16.654Z,19.90
2017-09-26T20:13:44.331Z,21.67
2017-09-26T20:16:12.019Z,20.23
2017-09-26T20:18:39.663Z,21.50
2017-09-26T20:21:07.312Z,18.10
2017-09-26T20:23:34.940Z,19.03
2017-09-26T20:26:03.324Z,19.50
2017-09-26T20:28:31.738Z,22.40
2017-09-26T20:30:59.368Z,19.47
2017-09-26T20:33:27.097Z,22.00
2017-09-26T20:35:54.693Z,21.53
2017-09-26T20:38:22.994Z,20.77
2017-09-26T20:40:50.559Z,20.97
2017-09-26T20:43:18.150Z,19.10
2017-09-26T20:45:45.707Z,19.97
2017-09-26T20:48:13.264Z,21.40
2017-09-26T20:50:40.865Z,22.87
2017-09-26T20:53:09.257Z,25.30
2017-09-26T20:55:36.869Z,23.93
2017-09-26T20:58:04.515Z,23.27
2017-09-26T21:00:32.106Z,27.70
2017-09-26T21:02:59.737Z,26.43
2017-09-26T21:05:27.347Z,21.53
2017-09-26T21:07:55.728Z,25.13
2017-09-26T21:10:23.349Z,21.93
2017-09-26T21:12:50.926Z,23.67
2017-09-26T21:15:18.605Z,18.53
2017-09-26T21:17:46.946Z,24.07
2017-09-26T21:20:14.599Z,24.93
2017-09-26T21:22:42.212Z,22.47
2017-09-26T21:25:09.806Z,21.67
2017-09-26T21:27:37.403Z,20.73
2017-09-26T21:30:05.036Z,20.07
2017-09-26T21:32:32.619Z,20.60
2017-09-26T21:35:00.287Z,27.27
2017-09-26T21:37:27.864Z,18.20
2017-09-26T21:39:55.535Z,20.53
2017-09-26T21:42:23.134Z,18.97
2017-09-26T21:44:50.750Z,18.60
2017-09-26T21:47:18.396Z,25.47
2017-09-26T21:49:46.093Z,18.10
2017-09-26T21:52:13.725Z,20.30
2017-09-26T21:54:41.339Z,17.40
2017-09-26T21:57:08.937Z,16.90
2017-09-26T21:59:36.518Z,21.10
2017-09-26T22:02:13.398Z,14.20
2017-09-26T22:04:41.813Z,17.45
2017-09-26T22:07:09.463Z,21.62
2017-09-26T22:09:37.968Z,16.87
2017-09-26T22:12:05.607Z,19.30
2017-09-26T22:14:33.968Z,19.35
2017-09-26T22:17:01.622Z,17.47
2017-09-26T22:19:29.222Z,19.67
2017-09-26T22:21:57.542Z,21.02
2017-09-26T22:24:25.148Z,17.75
2017-09-26T22:26:52.746Z,17.07
2017-09-26T22:29:20.290Z,14.27
2017-09-26T22:31:48.628Z,10.17
2017-09-26T22:34:16.193Z,14.10
2017-09-26T22:36:43.760Z,15.57
2017-09-26T22:39:11.282Z,16.83
2017-09-26T22:41:38.847Z,15.73
2017-09-26T22:44:06.374Z,20.00
2017-09-26T22:46:34.746Z,15.82
2017-09-26T22:49:02.308Z,22.27
2017-09-26T22:51:30.636Z,19.75
2017-09-26T22:53:58.958Z,20.00
2017-09-26T22:56:26.587Z,23.17
2017-09-26T22:58:54.147Z,21.23
2017-09-26T23:01:21.679Z,21.10
2017-09-26T23:03:49.255Z,23.50
2017-09-26T23:06:16.817Z,21.37
2017-09-26T23:08:44.366Z,20.97
2017-09-26T23:11:11.982Z,26.90
2017-09-26T23:13:40.356Z,18.60
2017-09-26T23:16:07.889Z,21.20
2017-09-26T23:18:35.537Z,23.27
2017-09-26T23:21:03.096Z,19.70
2017-09-26T23:23:30.701Z,20.60
2017-09-26T23:25:58.233Z,20.17
2017-09-26T23:28:25.794Z,21.08
2017-09-26T23:30:53.337Z,21.35
2017-09-26T23:33:20.969Z,19.37
2017-09-26T23:35:48.518Z,19.45
2017-09-26T23:38:16.837Z,16.15
2017-09-26T23:40:44.385Z,16.65
2017-09-26T23:43:12.700Z,21.53
2017-09-26T23:45:40.301Z,19.87
2017-09-26T23:48:08.622Z,20.00
2017-09-26T23:50:36.169Z,17.10
2017-09-26T23:53:03.721Z,16.60
2017-09-26T23:55:31.273Z,16.67
2017-09-26T23:57:58.831Z,15.73
